TAM8122 SBGR-SPJC
Flight info
| Callsign | TAM8122 |
|---|---|
| Flight time | N/A |
| Altitude | 34000 |
| Route | EGEVA UM415 XOLAT/N0463F360 UM415 JUL UV18 AND UT336 VUPUD DCT PEROV |
| Aircraft | A320/M-SDE3FGHIRWY/LB1 |
Departure
| Time | 2026-05-04 19:43 |
|---|---|
| Airport | São Paulo/Guarulhos–Governor André Franco Montoro International Airport (SBGR) |
Arrival
| Time | N/A |
|---|---|
| Airport | Jorge Chávez International Airport (SPJC) |
| Time | Latitude | Longitude | Altitude | Speed | Heading |
|---|---|---|---|---|---|
| 2026-05-04 19:28 | -23.42895 | -46.48060 | 2465 ft | 0 kts | 84° |
| 2026-05-04 19:36 | -23.42896 | -46.48069 | 2468 ft | 4 kts | 87° |
| 2026-05-04 19:36 | -23.42894 | -46.48098 | 2469 ft | 4 kts | 103° |
| 2026-05-04 19:36 | -23.42885 | -46.48125 | 2465 ft | 4 kts | 123° |
| 2026-05-04 19:37 | -23.42868 | -46.48145 | 2464 ft | 4 kts | 159° |
| 2026-05-04 19:37 | -23.42858 | -46.48148 | 2464 ft | 0 kts | 175° |
| 2026-05-04 19:39 | -23.42880 | -46.48146 | 2464 ft | 4 kts | 174° |
| 2026-05-04 19:40 | -23.42930 | -46.48141 | 2464 ft | 11 kts | 175° |
| 2026-05-04 19:40 | -23.43011 | -46.48133 | 2468 ft | 11 kts | 175° |
| 2026-05-04 19:40 | -23.43075 | -46.48127 | 2465 ft | 8 kts | 175° |
| 2026-05-04 19:40 | -23.43140 | -46.48116 | 2471 ft | 11 kts | 163° |
| 2026-05-04 19:41 | -23.43204 | -46.48151 | 2472 ft | 13 kts | 250° |
| 2026-05-04 19:41 | -23.43234 | -46.48256 | 2470 ft | 15 kts | 253° |
| 2026-05-04 19:41 | -23.43287 | -46.48347 | 2472 ft | 15 kts | 208° |
| 2026-05-04 19:41 | -23.43383 | -46.48341 | 2467 ft | 14 kts | 162° |
| 2026-05-04 19:42 | -23.43421 | -46.48300 | 2462 ft | 7 kts | 79° |
| 2026-05-04 19:42 | -23.43408 | -46.48258 | 2461 ft | 3 kts | 73° |
| 2026-05-04 19:42 | -23.43406 | -46.48252 | 2461 ft | 0 kts | 73° |
| 2026-05-04 19:42 | -23.43396 | -46.48215 | 2461 ft | 21 kts | 73° |
| 2026-05-04 19:43 | -23.43276 | -46.47775 | 2461 ft | 98 kts | 73° |
| 2026-05-04 19:43 | -23.43018 | -46.46821 | 2468 ft | 161 kts | 73° |
| 2026-05-04 19:43 | -23.42662 | -46.45501 | 2756 ft | 189 kts | 73° |
| 2026-05-04 19:43 | -23.42274 | -46.44135 | 3653 ft | 189 kts | 71° |
| 2026-05-04 19:44 | -23.41869 | -46.42759 | 4231 ft | 195 kts | 71° |
| 2026-05-04 19:44 | -23.41433 | -46.41285 | 4387 ft | 214 kts | 70° |
| 2026-05-04 19:44 | -23.40954 | -46.39664 | 4561 ft | 234 kts | 71° |
| 2026-05-04 19:44 | -23.40439 | -46.37898 | 4746 ft | 256 kts | 71° |
| 2026-05-04 19:45 | -23.40184 | -46.35902 | 5080 ft | 277 kts | 96° |
| 2026-05-04 19:45 | -23.40712 | -46.33854 | 5704 ft | 285 kts | 109° |
| 2026-05-04 19:45 | -23.41387 | -46.31806 | 6385 ft | 290 kts | 109° |
| 2026-05-04 19:45 | -23.42074 | -46.29723 | 7083 ft | 295 kts | 109° |
| 2026-05-04 19:46 | -23.42789 | -46.27618 | 7781 ft | 298 kts | 113° |
| 2026-05-04 19:46 | -23.44041 | -46.25826 | 8411 ft | 302 kts | 145° |
| 2026-05-04 19:46 | -23.45967 | -46.24976 | 9044 ft | 301 kts | 178° |
| 2026-05-04 19:46 | -23.48044 | -46.25150 | 9688 ft | 300 kts | 192° |
| 2026-05-04 19:47 | -23.50101 | -46.25563 | 10342 ft | 303 kts | 194° |
| 2026-05-04 19:47 | -23.52134 | -46.26372 | 10494 ft | 321 kts | 212° |
| 2026-05-04 19:47 | -23.53974 | -46.27859 | 10619 ft | 340 kts | 225° |
| 2026-05-04 19:47 | -23.55542 | -46.29851 | 10867 ft | 352 kts | 238° |
| 2026-05-04 19:48 | -23.56689 | -46.32223 | 11386 ft | 356 kts | 250° |
| 2026-05-04 19:48 | -23.57344 | -46.34830 | 11969 ft | 359 kts | 257° |
| 2026-05-04 19:48 | -23.57890 | -46.37494 | 12571 ft | 361 kts | 257° |
| 2026-05-04 19:48 | -23.58431 | -46.40179 | 13170 ft | 364 kts | 257° |
| 2026-05-04 19:49 | -23.58970 | -46.42881 | 13783 ft | 366 kts | 257° |
| 2026-05-04 19:49 | -23.59505 | -46.45598 | 14357 ft | 368 kts | 258° |
| 2026-05-04 19:49 | -23.60032 | -46.48294 | 14901 ft | 370 kts | 258° |
| 2026-05-04 19:49 | -23.60574 | -46.51047 | 15450 ft | 372 kts | 258° |
| 2026-05-04 19:50 | -23.61092 | -46.53821 | 15997 ft | 374 kts | 259° |
| 2026-05-04 19:50 | -23.61540 | -46.56626 | 16510 ft | 377 kts | 260° |
| 2026-05-04 19:50 | -23.61945 | -46.59454 | 17023 ft | 378 kts | 261° |
| 2026-05-04 19:50 | -23.62333 | -46.62300 | 17502 ft | 380 kts | 261° |
| 2026-05-04 19:51 | -23.62947 | -46.65108 | 17974 ft | 382 kts | 251° |
| 2026-05-04 19:51 | -23.64060 | -46.67746 | 18431 ft | 385 kts | 240° |
| 2026-05-04 19:51 | -23.65493 | -46.70225 | 18886 ft | 387 kts | 238° |
| 2026-05-04 19:51 | -23.66940 | -46.72703 | 19333 ft | 389 kts | 239° |
| 2026-05-04 19:52 | -23.68106 | -46.75360 | 19742 ft | 390 kts | 252° |
| 2026-05-04 19:52 | -23.68632 | -46.78269 | 20158 ft | 392 kts | 266° |
| 2026-05-04 19:52 | -23.68476 | -46.81241 | 20565 ft | 396 kts | 279° |
| 2026-05-04 19:52 | -23.67632 | -46.84117 | 20942 ft | 402 kts | 293° |
| 2026-05-04 19:53 | -23.66165 | -46.86741 | 21301 ft | 408 kts | 302° |
| 2026-05-04 19:53 | -23.64544 | -46.89294 | 21672 ft | 410 kts | 302° |
| 2026-05-04 19:53 | -23.62910 | -46.91857 | 22040 ft | 413 kts | 302° |
| 2026-05-04 19:53 | -23.61265 | -46.94437 | 22405 ft | 415 kts | 302° |
| 2026-05-04 19:54 | -23.59613 | -46.97030 | 22737 ft | 417 kts | 301° |
| 2026-05-04 19:54 | -23.57956 | -46.99640 | 23069 ft | 420 kts | 301° |
| 2026-05-04 19:54 | -23.56292 | -47.02269 | 23395 ft | 423 kts | 301° |
| 2026-05-04 19:54 | -23.54619 | -47.04911 | 23728 ft | 425 kts | 301° |
| 2026-05-04 19:55 | -23.52932 | -47.07563 | 24023 ft | 427 kts | 301° |
| 2026-05-04 19:55 | -23.51235 | -47.10226 | 24308 ft | 429 kts | 301° |
| 2026-05-04 19:55 | -23.49530 | -47.12901 | 24632 ft | 431 kts | 301° |
| 2026-05-04 19:55 | -23.47846 | -47.15548 | 24951 ft | 432 kts | 301° |
| 2026-05-04 19:56 | -23.46128 | -47.18248 | 25255 ft | 434 kts | 301° |
| 2026-05-04 19:56 | -23.44406 | -47.20951 | 25562 ft | 435 kts | 301° |
| 2026-05-04 19:56 | -23.42679 | -47.23663 | 25868 ft | 436 kts | 301° |
| 2026-05-04 19:56 | -23.40949 | -47.26383 | 26175 ft | 438 kts | 301° |
| 2026-05-04 19:57 | -23.39217 | -47.29106 | 26472 ft | 439 kts | 301° |
| 2026-05-04 19:57 | -23.37475 | -47.31842 | 26756 ft | 440 kts | 301° |
| 2026-05-04 19:57 | -23.35723 | -47.34587 | 27037 ft | 441 kts | 301° |
| 2026-05-04 19:57 | -23.33973 | -47.37327 | 27305 ft | 442 kts | 301° |
| 2026-05-04 19:58 | -23.32213 | -47.40077 | 27551 ft | 444 kts | 301° |
| 2026-05-04 19:58 | -23.30445 | -47.42836 | 27789 ft | 445 kts | 301° |
| 2026-05-04 19:58 | -23.28667 | -47.45606 | 28048 ft | 446 kts | 300° |
| 2026-05-04 19:58 | -23.26896 | -47.48374 | 28299 ft | 447 kts | 300° |
| 2026-05-04 19:59 | -23.25117 | -47.51154 | 28538 ft | 448 kts | 300° |
| 2026-05-04 19:59 | -23.23333 | -47.53941 | 28761 ft | 449 kts | 300° |
| 2026-05-04 19:59 | -23.21544 | -47.56731 | 29073 ft | 448 kts | 300° |
| 2026-05-04 19:59 | -23.19817 | -47.59527 | 29415 ft | 443 kts | 295° |
| 2026-05-04 20:00 | -23.18504 | -47.62519 | 29751 ft | 435 kts | 286° |
| 2026-05-04 20:00 | -23.17916 | -47.64593 | 29956 ft | 431 kts | 279° |
| 2026-05-04 20:00 | -23.17414 | -47.68864 | 30399 ft | 424 kts | 269° |
| 2026-05-04 20:00 | -23.17347 | -47.70985 | 30593 ft | 423 kts | 269° |
| 2026-05-04 20:01 | -23.17238 | -47.74177 | 30912 ft | 422 kts | 269° |
| 2026-05-04 20:01 | -23.17121 | -47.77356 | 31227 ft | 420 kts | 270° |
| 2026-05-04 20:01 | -23.17000 | -47.80522 | 31530 ft | 419 kts | 270° |
| 2026-05-04 20:01 | -23.16876 | -47.83679 | 31815 ft | 418 kts | 270° |
| 2026-05-04 20:02 | -23.16751 | -47.86826 | 32113 ft | 416 kts | 270° |
| 2026-05-04 20:02 | -23.16627 | -47.89961 | 32410 ft | 415 kts | 270° |
| 2026-05-04 20:02 | -23.16505 | -47.93086 | 32682 ft | 413 kts | 270° |
| 2026-05-04 20:02 | -23.16385 | -47.96203 | 32954 ft | 412 kts | 269° |
| 2026-05-04 20:03 | -23.16267 | -47.99311 | 33229 ft | 411 kts | 269° |
| 2026-05-04 20:03 | -23.16148 | -48.02408 | 33498 ft | 410 kts | 269° |
| 2026-05-04 20:03 | -23.16028 | -48.05497 | 33764 ft | 408 kts | 269° |
| 2026-05-04 20:03 | -23.15910 | -48.08575 | 34020 ft | 407 kts | 269° |
| 2026-05-04 20:04 | -23.15793 | -48.11649 | 34135 ft | 407 kts | 269° |
| 2026-05-04 20:04 | -23.15557 | -48.17781 | 34155 ft | 406 kts | 269° |
| 2026-05-04 20:05 | -23.15307 | -48.23897 | 34150 ft | 406 kts | 269° |
| 2026-05-04 20:05 | -23.15053 | -48.30015 | 34146 ft | 406 kts | 269° |
| 2026-05-04 20:06 | -23.14809 | -48.36101 | 34144 ft | 406 kts | 269° |
| 2026-05-04 20:06 | -23.14560 | -48.42222 | 34145 ft | 405 kts | 269° |
| 2026-05-04 20:07 | -23.14304 | -48.48338 | 34146 ft | 405 kts | 269° |
| 2026-05-04 20:07 | -23.14028 | -48.54452 | 34144 ft | 406 kts | 272° |
| 2026-05-04 20:08 | -23.12624 | -48.60447 | 34138 ft | 414 kts | 284° |
| 2026-05-04 20:08 | -23.10748 | -48.66356 | 34137 ft | 414 kts | 284° |
| 2026-05-04 20:09 | -23.08870 | -48.72259 | 34135 ft | 413 kts | 284° |
| 2026-05-04 20:09 | -23.07036 | -48.78099 | 34098 ft | 403 kts | 283° |
| 2026-05-04 20:10 | -23.05256 | -48.83781 | 34127 ft | 392 kts | 283° |
| 2026-05-04 20:10 | -23.03500 | -48.89306 | 34127 ft | 382 kts | 283° |
| 2026-05-04 20:11 | -23.01779 | -48.94690 | 34122 ft | 374 kts | 283° |
| 2026-05-04 20:11 | -23.00097 | -48.99959 | 34119 ft | 365 kts | 283° |
| 2026-05-04 20:12 | -22.98457 | -49.05101 | 34118 ft | 356 kts | 283° |
| 2026-05-04 20:12 | -22.96851 | -49.10113 | 34118 ft | 347 kts | 283° |
| 2026-05-04 20:13 | -22.95279 | -49.15001 | 34117 ft | 339 kts | 283° |
| 2026-05-04 20:13 | -22.93674 | -49.19748 | 34118 ft | 332 kts | 285° |
| 2026-05-04 20:14 | -22.91956 | -49.24330 | 34111 ft | 324 kts | 285° |
| 2026-05-04 20:14 | -22.90278 | -49.28789 | 34109 ft | 315 kts | 285° |
| 2026-05-04 20:15 | -22.88774 | -49.33122 | 34108 ft | 303 kts | 282° |
| 2026-05-04 20:15 | -22.88115 | -49.35271 | 34107 ft | 298 kts | 281° |
| 2026-05-04 20:15 | -22.87485 | -49.37390 | 34107 ft | 293 kts | 280° |
| 2026-05-04 20:15 | -22.86887 | -49.39485 | 34028 ft | 290 kts | 279° |
| 2026-05-04 20:16 | -22.86322 | -49.41585 | 33846 ft | 291 kts | 279° |
| 2026-05-04 20:16 | -22.85789 | -49.43704 | 33645 ft | 292 kts | 278° |
| 2026-05-04 20:16 | -22.85288 | -49.45832 | 33518 ft | 290 kts | 277° |
| 2026-05-04 20:16 | -22.84823 | -49.47952 | 33452 ft | 287 kts | 276° |
| 2026-05-04 20:17 | -22.84393 | -49.50058 | 33372 ft | 285 kts | 275° |
| 2026-05-04 20:17 | -22.84000 | -49.52161 | 33227 ft | 285 kts | 275° |
| 2026-05-04 20:17 | -22.83642 | -49.54278 | 33045 ft | 286 kts | 274° |
| 2026-05-04 20:17 | -22.83320 | -49.56398 | 32923 ft | 285 kts | 273° |
| 2026-05-04 20:18 | -22.83035 | -49.58511 | 32862 ft | 282 kts | 272° |
| 2026-05-04 20:18 | -22.82787 | -49.60611 | 32769 ft | 280 kts | 271° |
| 2026-05-04 20:18 | -22.82576 | -49.62714 | 32612 ft | 281 kts | 270° |
| 2026-05-04 20:18 | -22.82402 | -49.64823 | 32459 ft | 281 kts | 269° |
| 2026-05-04 20:19 | -22.82265 | -49.66925 | 32374 ft | 279 kts | 268° |
| 2026-05-04 20:19 | -22.82167 | -49.69019 | 32290 ft | 277 kts | 267° |
| 2026-05-04 20:19 | -22.82107 | -49.71105 | 32171 ft | 277 kts | 266° |
| 2026-05-04 20:19 | -22.82085 | -49.73166 | 32039 ft | 277 kts | 265° |
| 2026-05-04 20:20 | -22.82099 | -49.75249 | 31938 ft | 276 kts | 265° |
| 2026-05-04 20:20 | -22.82148 | -49.77320 | 31858 ft | 274 kts | 264° |
| 2026-05-04 20:20 | -22.82234 | -49.79381 | 31745 ft | 274 kts | 263° |
| 2026-05-04 20:20 | -22.82357 | -49.81438 | 31620 ft | 273 kts | 262° |
| 2026-05-04 20:21 | -22.82517 | -49.83487 | 31518 ft | 272 kts | 261° |
| 2026-05-04 20:21 | -22.82713 | -49.85525 | 31420 ft | 271 kts | 260° |
| 2026-05-04 20:21 | -22.83217 | -49.89569 | 31213 ft | 270 kts | 258° |
| 2026-05-04 20:22 | -22.83524 | -49.91573 | 31121 ft | 269 kts | 257° |
| 2026-05-04 20:22 | -22.83870 | -49.93563 | 31032 ft | 268 kts | 256° |
| 2026-05-04 20:22 | -22.84254 | -49.95538 | 30934 ft | 267 kts | 255° |
| 2026-05-04 20:22 | -22.84676 | -49.97501 | 30827 ft | 267 kts | 254° |
| 2026-05-04 20:23 | -22.85138 | -49.99453 | 30721 ft | 267 kts | 253° |
| 2026-05-04 20:23 | -22.85638 | -50.01388 | 30650 ft | 266 kts | 252° |
| 2026-05-04 20:23 | -22.86174 | -50.03298 | 30572 ft | 265 kts | 251° |
| 2026-05-04 20:23 | -22.86751 | -50.05199 | 30446 ft | 266 kts | 250° |
| 2026-05-04 20:24 | -22.87369 | -50.07091 | 30345 ft | 266 kts | 249° |
| 2026-05-04 20:24 | -22.88023 | -50.08961 | 30293 ft | 264 kts | 248° |
| 2026-05-04 20:24 | -22.88712 | -50.10802 | 30230 ft | 263 kts | 246° |
| 2026-05-04 20:24 | -22.89437 | -50.12623 | 30133 ft | 263 kts | 245° |
| 2026-05-04 20:25 | -22.90201 | -50.14429 | 30028 ft | 264 kts | 244° |
| 2026-05-04 20:25 | -22.91004 | -50.16223 | 29943 ft | 264 kts | 243° |
| 2026-05-04 20:25 | -22.91839 | -50.17988 | 29887 ft | 262 kts | 242° |
| 2026-05-04 20:25 | -22.92705 | -50.19723 | 29808 ft | 262 kts | 241° |
| 2026-05-04 20:26 | -22.93549 | -50.21546 | 29141 ft | 285 kts | 248° |